createdAt,value
2019-05-02T00:03:56.651Z,87.15
2019-05-02T00:09:04.053Z,89.92
2019-05-02T00:14:10.711Z,86.82
2019-05-02T00:19:16.100Z,84.93
2019-05-02T00:24:21.440Z,87.57
2019-05-02T00:29:26.978Z,81.97
2019-05-02T00:34:32.454Z,80.23
2019-05-02T00:39:38.153Z,82.05
2019-05-02T00:44:46.858Z,87.78
2019-05-02T00:49:50.681Z,82.17
2019-05-02T00:54:58.692Z,85.28
2019-05-02T01:00:03.874Z,81.80
2019-05-02T01:05:11.233Z,95.22
2019-05-02T01:10:21.203Z,91.47
2019-05-02T01:15:24.375Z,91.85
2019-05-02T01:20:30.011Z,85.67
2019-05-02T01:25:35.496Z,78.40
2019-05-02T01:31:13.017Z,89.42
2019-05-02T01:36:26.900Z,91.60
2019-05-02T01:41:32.552Z,90.97
2019-05-02T01:46:37.831Z,92.40
2019-05-02T01:51:47.674Z,93.33
2019-05-02T01:56:50.506Z,93.05
2019-05-02T02:01:57.943Z,97.10
2019-05-02T02:07:04.033Z,93.97
2019-05-02T02:12:11.274Z,94.20
2019-05-02T02:17:17.336Z,94.92
2019-05-02T02:22:39.169Z,81.37
2019-05-02T02:27:42.188Z,79.87
2019-05-02T02:32:50.216Z,79.00
2019-05-02T02:37:55.886Z,79.58
2019-05-02T02:43:12.710Z,79.80
2019-05-02T02:48:09.496Z,92.67
2019-05-02T02:53:18.369Z,90.03
2019-05-02T02:58:23.949Z,83.42
2019-05-02T03:03:30.582Z,82.55
2019-05-02T03:08:44.675Z,79.60
2019-05-02T03:14:07.503Z,103.65
2019-05-02T03:19:14.790Z,108.17
2019-05-02T03:24:19.631Z,108.32
2019-05-02T03:29:39.657Z,111.22
2019-05-02T03:34:46.659Z,130.20
2019-05-02T03:39:41.617Z,140.05
2019-05-02T03:44:54.926Z,140.18
2019-05-02T03:49:54.309Z,132.47
2019-05-02T03:54:59.880Z,138.50
2019-05-02T04:00:05.887Z,133.05
2019-05-02T04:05:12.025Z,133.63
2019-05-02T04:10:33.990Z,139.75
2019-05-02T04:15:40.113Z,132.50
2019-05-02T04:20:49.589Z,134.87
2019-05-02T04:25:55.040Z,136.07
2019-05-02T04:31:00.388Z,141.25
2019-05-02T04:36:14.201Z,147.55
2019-05-02T04:41:18.740Z,148.40
2019-05-02T04:46:27.269Z,145.33
2019-05-02T04:51:30.811Z,145.60
2019-05-02T04:56:42.076Z,146.10
2019-05-02T05:01:52.620Z,149.30
2019-05-02T05:06:56.062Z,150.20
2019-05-02T05:11:59.048Z,149.87
2019-05-02T05:17:07.880Z,149.13
2019-05-02T05:22:12.848Z,147.97
2019-05-02T05:27:22.520Z,148.73
2019-05-02T05:32:25.436Z,147.85
2019-05-02T05:37:30.695Z,147.28
2019-05-02T05:42:37.923Z,149.80
2019-05-02T05:47:42.975Z,151.25
2019-05-02T05:52:51.702Z,144.77
2019-05-02T05:58:03.127Z,136.97
2019-05-02T06:03:11.555Z,134.52
2019-05-02T06:08:13.888Z,140.25
2019-05-02T06:13:18.690Z,140.90
2019-05-02T06:18:24.016Z,138.80
2019-05-02T06:23:31.018Z,135.15
2019-05-02T06:28:41.656Z,131.27
2019-05-02T06:33:44.470Z,168.55
2019-05-02T06:38:52.281Z,125.07
2019-05-02T06:43:56.921Z,124.90
2019-05-02T06:49:02.593Z,121.72
2019-05-02T06:54:08.050Z,113.77
2019-05-02T06:59:18.446Z,115.45
2019-05-02T07:04:22.816Z,112.72
2019-05-02T07:09:39.909Z,104.87
2019-05-02T07:14:34.821Z,99.40
2019-05-02T07:19:43.863Z,98.95
2019-05-02T07:24:50.210Z,95.43
2019-05-02T07:29:57.629Z,91.50
2019-05-02T07:35:02.551Z,94.28
2019-05-02T07:40:12.122Z,85.65
2019-05-02T07:45:17.203Z,88.80
2019-05-02T07:50:22.740Z,83.45
2019-05-02T07:55:30.534Z,88.10
2019-05-02T08:00:37.057Z,93.95
2019-05-02T08:05:42.617Z,89.40
2019-05-02T08:10:47.857Z,87.42
2019-05-02T08:15:53.124Z,86.92
2019-05-02T08:20:58.505Z,86.40
2019-05-02T08:26:04.106Z,84.87
2019-05-02T08:31:13.582Z,84.13
2019-05-02T08:36:17.815Z,82.90
2019-05-02T08:41:23.090Z,79.10
2019-05-02T08:46:28.679Z,74.53
2019-05-02T08:51:33.935Z,75.53
2019-05-02T08:56:39.508Z,72.35
2019-05-02T09:01:44.873Z,73.28
2019-05-02T09:06:53.135Z,73.37
2019-05-02T09:12:08.683Z,72.95
2019-05-02T09:17:08.882Z,77.22
2019-05-02T09:22:13.154Z,75.62
2019-05-02T09:27:18.493Z,72.45
2019-05-02T09:32:26.211Z,73.78
2019-05-02T09:37:32.104Z,67.00
2019-05-02T09:42:37.771Z,66.67
2019-05-02T09:47:56.295Z,69.47
2019-05-02T09:52:52.265Z,65.03
2019-05-02T09:57:58.871Z,66.55
2019-05-02T10:03:04.389Z,63.23
2019-05-02T10:08:13.505Z,57.05
2019-05-02T10:13:16.684Z,65.52
2019-05-02T10:18:28.340Z,62.60
2019-05-02T10:23:28.997Z,61.50
2019-05-02T10:28:34.251Z,60.28
2019-05-02T10:33:39.607Z,57.80
2019-05-02T10:38:49.090Z,50.75
2019-05-02T10:43:56.641Z,50.78
2019-05-02T10:49:12.473Z,46.90
2019-05-02T10:54:20.506Z,48.27
2019-05-02T10:59:24.941Z,50.83
2019-05-02T11:04:32.437Z,48.58
2019-05-02T11:09:37.640Z,50.40
2019-05-02T11:14:57.716Z,50.97
2019-05-02T11:20:05.224Z,49.75
2019-05-02T11:25:12.084Z,48.93
2019-05-02T11:30:22.417Z,47.45
2019-05-02T11:35:24.691Z,46.13
2019-05-02T11:40:32.024Z,46.77
2019-05-02T11:45:37.402Z,47.62
2019-05-02T11:50:43.783Z,45.50
2019-05-02T11:55:49.242Z,49.00
2019-05-02T12:00:54.527Z,45.83
2019-05-02T12:06:01.831Z,41.63
2019-05-02T12:11:08.430Z,34.10
2019-05-02T12:16:14.620Z,35.17
2019-05-02T12:21:19.997Z,33.40
2019-05-02T12:26:27.632Z,32.17
2019-05-02T12:31:33.237Z,29.30
2019-05-02T12:36:38.663Z,30.53
2019-05-02T12:41:44.353Z,28.75
2019-05-02T12:46:51.802Z,30.25
2019-05-02T12:51:57.178Z,22.13
2019-05-02T12:57:02.555Z,21.27
2019-05-02T13:02:12.161Z,17.62
2019-05-02T13:07:17.428Z,18.00
2019-05-02T13:12:27.824Z,20.62
2019-05-02T13:17:35.667Z,20.48
2019-05-02T13:23:00.930Z,20.50
2019-05-02T13:28:05.567Z,21.33
2019-05-02T13:33:14.235Z,21.00
2019-05-02T13:38:23.003Z,20.80
2019-05-02T13:43:33.216Z,22.55
2019-05-02T13:48:38.968Z,23.80
2019-05-02T13:54:03.257Z,23.73
2019-05-02T13:59:10.513Z,21.60
2019-05-02T14:04:16.330Z,25.43
2019-05-02T14:09:44.048Z,23.18
2019-05-02T14:14:51.929Z,23.10
2019-05-02T14:20:08.525Z,23.43
2019-05-02T14:25:08.023Z,19.92
2019-05-02T14:30:13.985Z,18.82
2019-05-02T14:35:28.228Z,15.00
2019-05-02T14:40:34.149Z,10.57
2019-05-02T14:45:41.958Z,13.15
2019-05-02T14:50:46.667Z,14.50
2019-05-02T14:55:57.574Z,15.77
2019-05-02T15:01:02.873Z,18.07
2019-05-02T15:06:09.119Z,21.03
2019-05-02T15:11:14.467Z,16.37
2019-05-02T15:16:23.052Z,16.42
2019-05-02T15:21:42.300Z,17.37
2019-05-02T15:26:48.343Z,18.15
2019-05-02T15:32:16.061Z,23.15
2019-05-02T15:37:25.673Z,24.02
2019-05-02T15:42:28.892Z,25.00
2019-05-02T15:47:36.936Z,25.80
2019-05-02T15:52:43.190Z,25.37
2019-05-02T15:57:49.479Z,27.65
2019-05-02T16:02:56.271Z,28.42
2019-05-02T16:08:06.299Z,25.20
2019-05-02T16:13:15.451Z,25.82
2019-05-02T16:18:16.984Z,24.85
2019-05-02T16:23:42.454Z,24.50
2019-05-02T16:28:47.936Z,28.40
2019-05-02T16:33:57.398Z,26.55
2019-05-02T16:39:05.111Z,27.25
2019-05-02T16:44:12.703Z,28.05
2019-05-02T16:49:18.746Z,26.20
2019-05-02T16:54:24.181Z,26.17
2019-05-02T16:59:30.135Z,24.37
2019-05-02T17:04:36.619Z,26.05
2019-05-02T17:10:02.809Z,25.35
2019-05-02T17:15:31.328Z,25.45
2019-05-02T17:20:33.955Z,20.27
2019-05-02T17:26:01.735Z,21.42
2019-05-02T17:31:10.855Z,23.05
2019-05-02T17:36:15.392Z,22.02
2019-05-02T17:41:22.234Z,23.12
2019-05-02T17:46:27.841Z,19.80
2019-05-02T17:52:05.362Z,19.25
2019-05-02T17:57:03.471Z,19.50
2019-05-02T18:02:12.319Z,17.20
2019-05-02T18:07:18.105Z,20.30
2019-05-02T18:12:23.549Z,19.27
2019-05-02T18:17:29.165Z,19.12
2019-05-02T18:22:39.965Z,19.48
2019-05-02T18:27:42.801Z,17.42
2019-05-02T18:32:48.186Z,16.07
2019-05-02T18:37:54.410Z,14.80
2019-05-02T18:43:03.574Z,15.93
2019-05-02T18:48:07.039Z,15.20
2019-05-02T18:53:18.630Z,16.55
2019-05-02T18:58:22.876Z,17.33
2019-05-02T19:03:29.167Z,18.00
2019-05-02T19:08:46.707Z,17.53
2019-05-02T19:13:46.076Z,15.60
2019-05-02T19:18:55.850Z,13.83
2019-05-02T19:23:58.519Z,12.60
2019-05-02T19:29:26.998Z,12.17
2019-05-02T19:34:33.458Z,10.72
2019-05-02T19:39:44.831Z,8.20
2019-05-02T19:44:46.560Z,8.83
2019-05-02T19:49:54.256Z,10.28
2019-05-02T19:54:59.433Z,11.13
2019-05-02T20:00:06.736Z,9.90
2019-05-02T20:05:16.469Z,11.08
2019-05-02T20:10:19.655Z,11.90
2019-05-02T20:15:30.230Z,12.73
2019-05-02T20:20:58.250Z,13.98
2019-05-02T20:26:03.804Z,14.90
2019-05-02T20:31:09.200Z,13.28
2019-05-02T20:36:14.779Z,12.82
2019-05-02T20:41:22.406Z,12.15
2019-05-02T20:46:27.872Z,12.90
2019-05-02T20:51:36.331Z,12.67
2019-05-02T20:56:42.628Z,11.70
2019-05-02T21:01:48.559Z,11.93
2019-05-02T21:07:11.323Z,10.63
2019-05-02T21:12:16.623Z,10.98
2019-05-02T21:17:22.158Z,13.65
2019-05-02T21:22:29.424Z,15.90
2019-05-02T21:27:35.295Z,19.82
2019-05-02T21:32:42.642Z,20.52
2019-05-02T21:37:49.187Z,20.33
2019-05-02T21:42:54.781Z,22.30
2019-05-02T21:48:02.155Z,24.20
2019-05-02T21:53:13.559Z,26.25
2019-05-02T21:58:19.122Z,28.03
2019-05-02T22:03:25.917Z,28.50
2019-05-02T22:08:32.344Z,30.00
2019-05-02T22:13:38.244Z,30.05
2019-05-02T22:18:43.889Z,31.85
2019-05-02T22:23:49.405Z,32.10
2019-05-02T22:28:54.728Z,32.28
2019-05-02T22:34:01.991Z,32.98
2019-05-02T22:39:35.207Z,33.48
2019-05-02T22:44:41.735Z,34.63
2019-05-02T22:49:47.535Z,36.33
2019-05-02T22:54:53.094Z,36.80
2019-05-02T22:59:58.479Z,38.17
2019-05-02T23:05:03.820Z,31.80
2019-05-02T23:10:09.414Z,28.05
2019-05-02T23:15:14.639Z,28.38
2019-05-02T23:20:21.775Z,27.02
2019-05-02T23:25:44.638Z,27.60
2019-05-02T23:30:51.872Z,28.13
2019-05-02T23:35:57.292Z,26.00
2019-05-02T23:41:02.767Z,27.03
2019-05-02T23:46:09.068Z,24.37
2019-05-02T23:51:14.572Z,23.90
2019-05-02T23:56:21.983Z,24.00
